Terminal Aerodrome Forecast
Issued by NWS

Home | Current Version | Previous Version | Graphics & Text | Print | Product List | Glossary On
Versions: 1 2 3 4 5 6 7 8 9 10 11 12 13 14 15
407
FTUS43 KICT 231138
TAFSLN
TAF
KSLN 231138Z 2312/2412 17014G20KT P6SM VCTS OVC020CB
     FM231600 17016G23KT P6SM BKN035
     FM240500 17014G25KT P6SM VCTS BKN025CB=

USA.gov is the U.S. government's official web portal to all federal, state and local government web resources and services.